createdAt,value
2022-10-14T00:00:43.971Z,24.27
2022-10-14T00:03:10.582Z,23.30
2022-10-14T00:05:40.551Z,27.07
2022-10-14T00:08:08.941Z,28.23
2022-10-14T00:10:39.821Z,25.00
2022-10-14T00:13:06.854Z,25.57
2022-10-14T00:15:40.997Z,18.10
2022-10-14T00:18:10.087Z,19.17
2022-10-14T00:20:36.812Z,20.70
2022-10-14T00:23:04.012Z,21.57
2022-10-14T00:25:30.769Z,23.90
2022-10-14T00:27:57.398Z,21.60
2022-10-14T00:30:24.172Z,26.50
2022-10-14T00:32:50.899Z,25.73
2022-10-14T00:35:17.901Z,18.00
2022-10-14T00:37:44.540Z,24.80
2022-10-14T00:40:11.843Z,23.00
2022-10-14T00:42:38.924Z,18.43
2022-10-14T00:45:13.538Z,19.20
2022-10-14T00:47:41.824Z,17.83
2022-10-14T00:50:10.391Z,21.80
2022-10-14T00:52:37.488Z,22.80
2022-10-14T00:55:10.344Z,24.97
2022-10-14T00:57:38.631Z,29.93
2022-10-14T01:00:16.338Z,23.03
2022-10-14T01:02:43.114Z,24.43
2022-10-14T01:05:13.375Z,21.97
2022-10-14T01:07:55.631Z,19.57
2022-10-14T01:10:31.412Z,23.87
2022-10-14T01:13:29.316Z,21.00
2022-10-14T01:16:35.699Z,21.53
2022-10-14T01:19:14.787Z,24.90
2022-10-14T01:21:53.704Z,20.13
2022-10-14T01:24:43.239Z,22.33
2022-10-14T01:27:21.714Z,27.90
2022-10-14T01:30:06.720Z,34.77
2022-10-14T01:33:01.492Z,36.07
2022-10-14T01:35:43.595Z,34.10
2022-10-14T01:38:19.920Z,23.57
2022-10-14T01:40:49.569Z,27.60
2022-10-14T01:43:19.747Z,26.47
2022-10-14T01:45:49.648Z,23.57
2022-10-14T01:48:19.599Z,18.67
2022-10-14T01:50:49.593Z,17.23
2022-10-14T01:53:26.636Z,17.57
2022-10-14T01:55:56.336Z,18.83
2022-10-14T01:58:27.768Z,16.57
2022-10-14T02:00:54.880Z,18.40
2022-10-14T02:03:21.504Z,21.10
2022-10-14T02:06:00.731Z,18.80
2022-10-14T02:08:56.849Z,15.93
2022-10-14T02:11:24.011Z,20.37
2022-10-14T02:14:02.993Z,19.23
2022-10-14T02:16:43.777Z,18.10
2022-10-14T02:19:25.631Z,18.30
2022-10-14T02:22:16.267Z,20.10
2022-10-14T02:24:50.153Z,18.13
2022-10-14T02:27:20.273Z,17.63
2022-10-14T02:29:49.279Z,14.07
2022-10-14T02:32:20.788Z,17.37
2022-10-14T02:34:54.776Z,18.40
2022-10-14T02:37:23.320Z,17.57
2022-10-14T02:40:09.992Z,17.37
2022-10-14T02:42:36.672Z,17.33
2022-10-14T02:45:05.624Z,18.50
2022-10-14T02:47:32.254Z,25.23
2022-10-14T02:49:59.056Z,18.80
2022-10-14T02:52:25.757Z,21.33
2022-10-14T02:54:53.276Z,26.67
2022-10-14T02:57:19.872Z,20.27
2022-10-14T02:59:48.196Z,19.43
2022-10-14T03:02:14.910Z,22.20
2022-10-14T03:04:42.090Z,21.13
2022-10-14T03:07:09.435Z,20.23
2022-10-14T03:09:41.864Z,20.70
2022-10-14T03:12:09.616Z,21.53
2022-10-14T03:14:36.241Z,22.53
2022-10-14T03:17:04.018Z,17.33
2022-10-14T03:19:32.924Z,17.10
2022-10-14T03:21:59.544Z,17.13
2022-10-14T03:24:26.725Z,25.80
2022-10-14T03:27:11.852Z,21.90
2022-10-14T03:29:38.582Z,18.03
2022-10-14T03:32:13.203Z,20.20
2022-10-14T03:34:58.420Z,21.87
2022-10-14T03:37:26.018Z,19.20
2022-10-14T03:39:55.434Z,19.93
2022-10-14T03:42:22.438Z,17.77
2022-10-14T03:44:50.106Z,20.23
2022-10-14T03:47:27.849Z,20.10
2022-10-14T03:49:54.545Z,21.10
2022-10-14T03:52:26.970Z,17.03
2022-10-14T03:55:06.008Z,17.63
2022-10-14T03:57:32.900Z,18.10
2022-10-14T04:00:00.481Z,16.00
2022-10-14T04:02:40.490Z,19.20
2022-10-14T04:05:11.645Z,18.47
2022-10-14T04:07:39.196Z,16.80
2022-10-14T04:10:06.610Z,15.97
2022-10-14T04:12:34.581Z,19.23
2022-10-14T04:15:08.410Z,17.67
2022-10-14T04:17:50.007Z,21.23
2022-10-14T04:20:17.372Z,22.10
2022-10-14T04:22:44.415Z,24.33
2022-10-14T04:25:13.871Z,23.03
2022-10-14T04:27:40.674Z,16.93
2022-10-14T04:30:10.127Z,24.63
2022-10-14T04:32:46.302Z,23.03
2022-10-14T04:35:13.115Z,29.80
2022-10-14T04:37:43.779Z,25.23
2022-10-14T04:40:20.467Z,24.73
2022-10-14T04:42:47.560Z,27.60
2022-10-14T04:45:22.092Z,22.23
2022-10-14T04:47:55.036Z,24.90
2022-10-14T04:50:24.100Z,21.50
2022-10-14T04:53:13.224Z,24.03
2022-10-14T04:55:51.799Z,22.77
2022-10-14T04:58:18.622Z,19.83
2022-10-14T05:00:47.048Z,22.90
2022-10-14T05:03:33.897Z,21.03
2022-10-14T05:06:00.753Z,19.63
2022-10-14T05:08:27.680Z,25.73
2022-10-14T05:13:50.754Z,17.60
2022-10-14T05:16:17.866Z,18.87
2022-10-14T05:18:44.463Z,21.80
2022-10-14T05:21:13.494Z,21.10
2022-10-14T05:23:48.368Z,23.17
2022-10-14T05:26:15.548Z,22.90
2022-10-14T05:28:42.862Z,23.20
2022-10-14T05:31:09.943Z,21.50
2022-10-14T05:33:44.820Z,22.23
2022-10-14T05:36:11.867Z,24.20
2022-10-14T05:38:38.480Z,20.63
2022-10-14T05:41:05.286Z,19.33
2022-10-14T05:43:33.087Z,19.97
2022-10-14T05:46:02.265Z,20.70
2022-10-14T05:48:33.910Z,18.60
2022-10-14T05:51:02.500Z,23.03
2022-10-14T05:53:32.509Z,19.07
2022-10-14T05:56:09.708Z,20.97
2022-10-14T05:58:38.598Z,23.53
2022-10-14T06:01:08.378Z,17.77
2022-10-14T06:03:38.869Z,21.70
2022-10-14T06:06:06.127Z,20.97
2022-10-14T06:08:32.723Z,21.87
2022-10-14T06:11:03.295Z,27.03
2022-10-14T06:13:30.383Z,22.57
2022-10-14T06:15:57.491Z,21.77
2022-10-14T06:18:24.109Z,20.90
2022-10-14T06:20:54.598Z,20.07
2022-10-14T06:23:21.405Z,20.43
2022-10-14T06:25:48.023Z,37.10
2022-10-14T06:28:14.768Z,33.07
2022-10-14T06:30:41.431Z,31.30
2022-10-14T06:33:08.076Z,27.63
2022-10-14T06:35:34.700Z,32.33
2022-10-14T06:38:01.310Z,30.87
2022-10-14T06:40:27.945Z,26.73
2022-10-14T06:42:54.879Z,27.20
2022-10-14T06:45:21.791Z,23.33
2022-10-14T06:47:48.705Z,27.73
2022-10-14T06:50:15.388Z,23.90
2022-10-14T06:52:41.963Z,22.80
2022-10-14T06:55:09.043Z,22.23
2022-10-14T06:57:36.013Z,27.83
2022-10-14T07:00:03.829Z,29.37
2022-10-14T07:02:37.985Z,24.40
2022-10-14T07:05:05.443Z,25.87
2022-10-14T07:07:32.927Z,29.33
2022-10-14T07:09:59.527Z,28.70
2022-10-14T07:12:26.400Z,31.13
2022-10-14T07:14:52.986Z,28.37
2022-10-14T07:17:19.993Z,24.77
2022-10-14T07:19:47.053Z,22.00
2022-10-14T07:22:13.764Z,24.90
2022-10-14T07:24:40.945Z,24.10
2022-10-14T07:27:09.648Z,24.73
2022-10-14T07:29:36.451Z,20.97
2022-10-14T07:32:03.879Z,22.43
2022-10-14T07:34:31.303Z,20.33
2022-10-14T07:36:58.161Z,20.60
2022-10-14T07:39:26.088Z,19.37
2022-10-14T07:41:52.948Z,21.60
2022-10-14T07:44:23.596Z,26.50
2022-10-14T07:46:53.495Z,25.77
2022-10-14T07:49:23.220Z,25.63
2022-10-14T07:51:50.322Z,22.57
2022-10-14T07:54:22.954Z,26.43
2022-10-14T07:56:49.783Z,23.57
2022-10-14T07:59:19.421Z,19.00
2022-10-14T08:01:47.609Z,20.83
2022-10-14T08:04:14.448Z,23.43
2022-10-14T08:06:41.237Z,18.93
2022-10-14T08:09:10.729Z,18.37
2022-10-14T08:11:37.867Z,18.63
2022-10-14T08:14:05.496Z,18.17
2022-10-14T08:16:34.611Z,20.00
2022-10-14T08:19:05.557Z,19.57
2022-10-14T08:21:34.723Z,18.00
2022-10-14T08:24:01.390Z,20.73
2022-10-14T08:26:32.515Z,22.83
2022-10-14T08:29:04.099Z,21.20
2022-10-14T08:31:31.868Z,19.57
2022-10-14T08:33:59.795Z,17.30
2022-10-14T08:36:26.765Z,18.10
2022-10-14T08:38:54.911Z,21.90
2022-10-14T08:41:50.345Z,18.60
2022-10-14T08:44:23.134Z,16.33
2022-10-14T08:46:55.879Z,18.40
2022-10-14T08:49:26.077Z,18.57
2022-10-14T08:52:03.781Z,19.57
2022-10-14T08:54:44.432Z,21.13
2022-10-14T08:57:24.401Z,15.93
2022-10-14T08:59:52.224Z,20.37
2022-10-14T09:02:38.068Z,20.50
2022-10-14T09:05:05.977Z,21.53
2022-10-14T09:07:36.192Z,18.77
2022-10-14T09:10:08.071Z,22.70
2022-10-14T09:12:35.932Z,17.90
2022-10-14T09:15:13.982Z,23.33
2022-10-14T09:17:46.492Z,21.17
2022-10-14T09:20:24.784Z,19.63
2022-10-14T09:23:03.597Z,21.97
2022-10-14T09:25:33.645Z,21.63
2022-10-14T09:28:00.855Z,17.33
2022-10-14T09:30:35.847Z,21.70
2022-10-14T09:33:04.381Z,23.60
2022-10-14T09:35:35.474Z,15.73
2022-10-14T09:38:02.280Z,15.57
2022-10-14T09:40:42.602Z,17.53
2022-10-14T09:43:09.175Z,15.90
2022-10-14T09:46:11.080Z,19.77
2022-10-14T09:48:52.428Z,16.63
2022-10-14T09:51:26.234Z,20.23
2022-10-14T09:53:56.060Z,16.50
2022-10-14T09:56:40.730Z,17.20
2022-10-14T09:59:22.444Z,20.77
2022-10-14T10:01:58.123Z,17.40
2022-10-14T10:04:57.387Z,14.10
2022-10-14T10:07:32.829Z,14.87
2022-10-14T10:10:05.104Z,15.43
2022-10-14T10:12:31.702Z,17.83
2022-10-14T10:15:03.670Z,16.73
2022-10-14T10:17:36.057Z,16.03
2022-10-14T10:20:15.920Z,13.53
2022-10-14T10:22:43.284Z,13.73
2022-10-14T10:25:10.076Z,15.57
2022-10-14T10:27:41.795Z,19.27
2022-10-14T10:30:14.558Z,16.70
2022-10-14T10:32:51.940Z,20.93
2022-10-14T10:35:31.162Z,19.30
2022-10-14T10:38:13.052Z,22.17
2022-10-14T10:41:24.591Z,17.17
2022-10-14T10:44:03.486Z,13.50
2022-10-14T10:46:33.353Z,17.43
2022-10-14T10:49:15.274Z,15.43
2022-10-14T10:51:58.567Z,15.13
2022-10-14T10:54:35.780Z,12.20
2022-10-14T10:57:13.450Z,11.47
2022-10-14T11:00:00.212Z,13.53
2022-10-14T11:02:45.035Z,13.37
2022-10-14T11:05:33.283Z,14.03
2022-10-14T11:08:43.265Z,10.90
2022-10-14T11:11:49.868Z,13.70
2022-10-14T11:14:35.316Z,10.93
2022-10-14T11:17:26.857Z,18.50
2022-10-14T11:20:18.112Z,9.97
2022-10-14T11:22:51.110Z,12.60
2022-10-14T11:25:33.687Z,12.37
2022-10-14T11:28:15.796Z,10.23
2022-10-14T11:30:53.307Z,8.67
2022-10-14T11:33:22.865Z,10.47
2022-10-14T11:36:06.156Z,8.47
2022-10-14T11:38:49.278Z,8.80
2022-10-14T11:41:34.255Z,10.30
2022-10-14T11:44:14.625Z,11.90
2022-10-14T11:46:48.040Z,8.63
2022-10-14T11:49:50.073Z,8.47
2022-10-14T11:52:23.675Z,11.00
2022-10-14T11:54:58.565Z,13.67
2022-10-14T11:57:32.718Z,11.90
2022-10-14T12:03:03.814Z,10.23
2022-10-14T12:06:06.580Z,10.00
2022-10-14T12:08:46.136Z,14.97
2022-10-14T12:11:54.451Z,9.10
2022-10-14T12:14:35.196Z,12.50
2022-10-14T12:17:19.212Z,12.87
2022-10-14T12:19:46.393Z,10.50
2022-10-14T12:22:19.722Z,10.80
2022-10-14T12:24:59.434Z,8.23
2022-10-14T12:27:28.529Z,10.37
2022-10-14T12:29:58.341Z,11.93
2022-10-14T12:32:27.339Z,9.77
2022-10-14T12:34:56.695Z,12.03
2022-10-14T12:37:31.725Z,9.50
2022-10-14T12:40:07.894Z,9.73
2022-10-14T12:42:54.664Z,11.27
2022-10-14T12:45:24.677Z,13.13
2022-10-14T12:48:22.881Z,9.13
2022-10-14T12:50:57.336Z,8.80
2022-10-14T12:53:28.667Z,12.50
2022-10-14T12:55:58.203Z,8.67
2022-10-14T12:58:54.846Z,9.13
2022-10-14T13:01:22.045Z,8.50
2022-10-14T13:03:59.158Z,7.87
2022-10-14T13:06:29.083Z,8.20
2022-10-14T13:09:17.181Z,8.60
2022-10-14T13:11:52.823Z,10.73
2022-10-14T13:14:32.397Z,7.97
2022-10-14T13:17:01.001Z,9.00
2022-10-14T13:19:33.769Z,9.20
2022-10-14T13:22:00.407Z,7.73
2022-10-14T13:24:53.376Z,12.63
2022-10-14T13:27:47.760Z,9.70
2022-10-14T13:30:34.507Z,9.13
2022-10-14T13:33:28.555Z,7.67
2022-10-14T13:36:05.654Z,11.50
2022-10-14T13:38:34.808Z,6.50
2022-10-14T13:41:03.559Z,9.50
2022-10-14T13:43:42.428Z,7.27
2022-10-14T13:46:18.098Z,8.73
2022-10-14T13:48:48.855Z,8.83
2022-10-14T13:51:31.846Z,9.27
2022-10-14T13:54:23.521Z,11.90
2022-10-14T14:02:44.676Z,11.33
2022-10-14T14:05:20.510Z,10.17
2022-10-14T14:10:42.471Z,11.97
2022-10-14T14:13:18.878Z,15.97
2022-10-14T14:15:51.091Z,12.87
2022-10-14T14:18:56.226Z,11.83
2022-10-14T14:21:26.203Z,14.53
2022-10-14T14:23:58.960Z,14.83
2022-10-14T14:26:38.085Z,14.00
2022-10-14T14:29:14.872Z,14.23
2022-10-14T14:34:30.995Z,18.23
2022-10-14T14:37:16.631Z,14.23
2022-10-14T14:40:18.339Z,21.43
2022-10-14T14:42:48.051Z,18.50
2022-10-14T14:45:22.483Z,34.07
2022-10-14T14:47:52.665Z,48.77
2022-10-14T14:50:30.374Z,38.20
2022-10-14T14:53:06.997Z,50.30
2022-10-14T14:55:46.660Z,17.47
2022-10-14T14:58:25.172Z,15.37
2022-10-14T15:00:54.850Z,14.77
2022-10-14T15:03:32.115Z,14.20
2022-10-14T15:06:02.378Z,19.93
2022-10-14T15:08:32.753Z,15.20
2022-10-14T15:11:00.742Z,16.30
2022-10-14T15:13:38.570Z,14.83
2022-10-14T15:16:06.148Z,13.93
2022-10-14T15:18:33.518Z,13.77
2022-10-14T15:21:15.353Z,13.97
2022-10-14T15:23:52.823Z,13.00
2022-10-14T15:26:21.575Z,12.57
2022-10-14T15:29:15.533Z,14.83
2022-10-14T15:31:45.726Z,15.73
2022-10-14T15:34:22.778Z,16.10
2022-10-14T15:36:51.174Z,14.20
2022-10-14T15:39:18.148Z,14.03
2022-10-14T15:41:45.516Z,20.00
2022-10-14T15:44:12.253Z,14.70
2022-10-14T15:47:00.023Z,14.33
2022-10-14T15:49:30.460Z,14.10
2022-10-14T15:51:57.180Z,15.37
2022-10-14T15:54:27.442Z,14.27
2022-10-14T15:56:57.779Z,14.30
2022-10-14T15:59:25.646Z,12.87
2022-10-14T16:01:52.670Z,16.37
2022-10-14T16:04:24.263Z,15.43
2022-10-14T16:06:55.238Z,13.83
2022-10-14T16:09:23.543Z,12.50
2022-10-14T16:11:57.280Z,13.30
2022-10-14T16:14:27.717Z,14.00
2022-10-14T16:16:55.055Z,13.60
2022-10-14T16:19:22.315Z,13.43
2022-10-14T16:21:50.328Z,17.60
2022-10-14T16:24:20.260Z,12.93
2022-10-14T16:26:49.232Z,16.70
2022-10-14T16:29:18.128Z,36.17
2022-10-14T16:31:50.116Z,49.23
2022-10-14T16:34:22.695Z,31.70
2022-10-14T16:36:50.607Z,14.43
2022-10-14T16:39:19.235Z,15.03
2022-10-14T16:41:46.392Z,14.30
2022-10-14T16:44:24.757Z,18.90
2022-10-14T16:47:12.275Z,13.93
2022-10-14T16:49:40.413Z,15.50
2022-10-14T16:52:08.405Z,13.13
2022-10-14T16:54:35.134Z,15.33
2022-10-14T16:57:02.535Z,27.53
2022-10-14T16:59:31.270Z,17.10
2022-10-14T17:01:58.643Z,27.73
2022-10-14T17:04:26.124Z,30.70
2022-10-14T17:06:57.733Z,14.10
2022-10-14T17:11:58.163Z,16.47
2022-10-14T17:14:24.830Z,16.13
2022-10-14T17:16:54.588Z,14.17
2022-10-14T17:19:23.228Z,13.93
2022-10-14T17:21:50.070Z,15.33
2022-10-14T17:24:17.032Z,16.70
2022-10-14T17:26:45.200Z,12.37
2022-10-14T17:29:11.917Z,19.83
2022-10-14T17:31:38.985Z,19.70
2022-10-14T17:34:08.847Z,17.20
2022-10-14T17:36:35.780Z,17.37
2022-10-14T17:39:02.576Z,15.83
2022-10-14T17:41:30.728Z,17.37
2022-10-14T17:44:00.026Z,16.43
2022-10-14T17:46:29.406Z,12.70
2022-10-14T17:49:00.058Z,12.83
2022-10-14T17:51:28.214Z,14.07
2022-10-14T17:53:58.277Z,12.40
2022-10-14T17:56:26.268Z,14.87
2022-10-14T17:59:00.466Z,13.13
2022-10-14T18:01:37.130Z,11.10
2022-10-14T18:04:10.845Z,12.03
2022-10-14T18:06:37.575Z,12.43
2022-10-14T18:09:08.978Z,15.73
2022-10-14T18:12:07.624Z,11.33
2022-10-14T18:14:30.158Z,14.77
2022-10-14T18:16:56.962Z,12.00
2022-10-14T18:19:23.610Z,11.50
2022-10-14T18:21:53.104Z,13.00
2022-10-14T18:24:20.265Z,12.20
2022-10-14T18:26:50.167Z,11.30
2022-10-14T18:29:17.092Z,10.70
2022-10-14T18:31:43.928Z,11.13
2022-10-14T18:34:11.461Z,11.67
2022-10-14T18:36:38.254Z,13.37
2022-10-14T18:39:07.691Z,10.40
2022-10-14T18:41:36.988Z,11.60
2022-10-14T18:44:04.762Z,12.00
2022-10-14T18:46:34.504Z,13.00
2022-10-14T18:49:03.123Z,15.10
2022-10-14T18:51:36.869Z,11.23
2022-10-14T18:54:06.638Z,13.43
2022-10-14T18:56:38.831Z,11.33
2022-10-14T18:59:14.456Z,11.07
2022-10-14T19:01:42.413Z,11.50
2022-10-14T19:04:15.049Z,9.50
2022-10-14T19:06:44.963Z,9.63
2022-10-14T19:09:12.743Z,10.30
2022-10-14T19:11:39.667Z,12.47
2022-10-14T19:14:06.379Z,11.77
2022-10-14T19:16:36.530Z,10.03
2022-10-14T19:19:08.318Z,11.80
2022-10-14T19:21:35.169Z,11.80
2022-10-14T19:24:02.967Z,11.13
2022-10-14T19:26:32.251Z,9.73
2022-10-14T19:29:00.430Z,9.97
2022-10-14T19:31:30.008Z,9.03
2022-10-14T19:33:59.819Z,9.37
2022-10-14T19:36:26.428Z,9.53
2022-10-14T19:38:57.918Z,12.53
2022-10-14T19:41:26.983Z,12.10
2022-10-14T19:43:54.651Z,13.57
2022-10-14T19:46:27.435Z,11.20
2022-10-14T19:49:07.172Z,9.13
2022-10-14T19:51:34.586Z,12.03
2022-10-14T19:54:01.418Z,9.67
2022-10-14T19:56:28.596Z,10.60
2022-10-14T19:58:57.723Z,9.33
2022-10-14T20:01:27.072Z,11.77
2022-10-14T20:03:54.572Z,10.43
2022-10-14T20:06:22.769Z,17.10
2022-10-14T20:08:50.048Z,13.03
2022-10-14T20:11:19.118Z,12.23
2022-10-14T20:13:47.008Z,13.63
2022-10-14T20:16:13.921Z,10.40
2022-10-14T20:18:40.999Z,10.10
2022-10-14T20:21:09.860Z,11.50
2022-10-14T20:23:38.362Z,12.60
2022-10-14T20:26:17.811Z,12.30
2022-10-14T20:28:44.668Z,12.53
2022-10-14T20:31:14.986Z,13.70
2022-10-14T20:33:42.041Z,11.10
2022-10-14T20:36:13.033Z,11.20
2022-10-14T20:38:40.749Z,12.37
2022-10-14T20:41:12.652Z,11.83
2022-10-14T20:43:40.556Z,12.13
2022-10-14T20:46:07.272Z,11.97
2022-10-14T20:48:34.066Z,10.70
2022-10-14T20:51:04.745Z,11.47
2022-10-14T20:53:31.504Z,11.83
2022-10-14T20:56:07.279Z,10.53
2022-10-14T20:58:34.682Z,11.73
2022-10-14T21:01:13.279Z,10.77
2022-10-14T21:03:40.510Z,11.07
2022-10-14T21:06:10.411Z,10.20
2022-10-14T21:08:37.644Z,13.43
2022-10-14T21:11:10.470Z,13.03
2022-10-14T21:13:41.255Z,11.80
2022-10-14T21:16:21.831Z,12.10
2022-10-14T21:18:55.000Z,11.73
2022-10-14T21:21:26.491Z,13.57
2022-10-14T21:23:53.364Z,15.17
2022-10-14T21:26:19.936Z,13.30
2022-10-14T21:28:46.675Z,10.87
2022-10-14T21:31:17.443Z,15.23
2022-10-14T21:33:46.999Z,10.80
2022-10-14T21:36:15.232Z,9.60
2022-10-14T21:38:42.195Z,11.27
2022-10-14T21:41:09.040Z,9.80
2022-10-14T21:43:37.604Z,9.83
2022-10-14T21:46:07.118Z,10.73
2022-10-14T21:48:33.754Z,10.20
2022-10-14T21:51:16.889Z,9.83
2022-10-14T21:53:45.857Z,9.20
2022-10-14T21:56:14.553Z,9.70
2022-10-14T21:58:41.308Z,12.70
2022-10-14T22:01:10.964Z,8.70
2022-10-14T22:03:38.956Z,9.53
2022-10-14T22:06:11.320Z,13.27
2022-10-14T22:08:40.192Z,10.57
2022-10-14T22:11:14.384Z,10.87
2022-10-14T22:13:41.030Z,9.50
2022-10-14T22:16:07.895Z,9.57
2022-10-14T22:18:34.820Z,10.37
2022-10-14T22:21:05.061Z,11.63
2022-10-14T22:23:32.604Z,9.47
2022-10-14T22:26:01.844Z,9.40
2022-10-14T22:28:30.731Z,10.50
2022-10-14T22:31:05.448Z,14.30
2022-10-14T22:33:34.583Z,9.20
2022-10-14T22:36:19.336Z,8.83
2022-10-14T22:38:49.980Z,9.10
2022-10-14T22:41:17.694Z,10.40
2022-10-14T22:43:49.458Z,10.20
2022-10-14T22:46:20.142Z,8.83
2022-10-14T22:48:48.347Z,9.90
2022-10-14T22:51:18.353Z,10.87
2022-10-14T22:53:46.298Z,8.70
2022-10-14T22:56:15.969Z,11.40
2022-10-14T22:58:42.642Z,9.37
2022-10-14T23:01:21.310Z,11.13
2022-10-14T23:03:48.778Z,10.20
2022-10-14T23:06:16.094Z,9.20
2022-10-14T23:08:43.564Z,9.03
2022-10-14T23:11:14.706Z,10.47
2022-10-14T23:13:44.664Z,10.40
2022-10-14T23:16:17.261Z,10.87
2022-10-14T23:18:45.058Z,10.40
2022-10-14T23:21:18.965Z,8.93
2022-10-14T23:23:46.533Z,12.90
2022-10-14T23:26:16.353Z,10.13
2022-10-14T23:28:43.753Z,11.93
2022-10-14T23:31:12.506Z,11.17
2022-10-14T23:33:39.690Z,10.10
2022-10-14T23:36:08.305Z,11.07
2022-10-14T23:38:35.943Z,11.03
2022-10-14T23:41:03.982Z,12.00
2022-10-14T23:43:30.940Z,9.73
2022-10-14T23:46:17.881Z,11.70
2022-10-14T23:48:51.422Z,13.00
2022-10-14T23:51:27.732Z,10.37
2022-10-14T23:53:54.403Z,11.90
2022-10-14T23:56:21.043Z,10.70
2022-10-14T23:58:47.819Z,10.73
